sensor_id;sensor_type;location;lat;lon;timestamp;temperature;humidity
76203;DHT22;64985;46.364;17.008;2024-02-26T00:01:48;6.50;99.90
76203;DHT22;64985;46.364;17.008;2024-02-26T00:04:50;6.30;99.90
76203;DHT22;64985;46.364;17.008;2024-02-26T00:07:53;6.20;99.90
76203;DHT22;64985;46.364;17.008;2024-02-26T00:10:55;6.20;99.90
76203;DHT22;64985;46.364;17.008;2024-02-26T00:13:57;6.00;99.90
76203;DHT22;64985;46.364;17.008;2024-02-26T00:17:00;5.80;99.90
76203;DHT22;64985;46.364;17.008;2024-02-26T00:20:03;5.70;99.90
76203;DHT22;64985;46.364;17.008;2024-02-26T00:23:10;5.50;99.90
76203;DHT22;64985;46.364;17.008;2024-02-26T00:26:13;5.50;99.90
76203;DHT22;64985;46.364;17.008;2024-02-26T00:29:15;5.40;99.90
76203;DHT22;64985;46.364;17.008;2024-02-26T00:32:17;5.60;99.90
76203;DHT22;64985;46.364;17.008;2024-02-26T00:35:20;5.70;99.90
76203;DHT22;64985;46.364;17.008;2024-02-26T00:38:22;5.70;99.90
76203;DHT22;64985;46.364;17.008;2024-02-26T00:41:24;5.50;99.90
76203;DHT22;64985;46.364;17.008;2024-02-26T00:44:27;5.60;99.90
76203;DHT22;64985;46.364;17.008;2024-02-26T00:47:29;6.00;99.90
76203;DHT22;64985;46.364;17.008;2024-02-26T00:50:32;6.30;99.90
76203;DHT22;64985;46.364;17.008;2024-02-26T00:53:34;6.50;99.90
76203;DHT22;64985;46.364;17.008;2024-02-26T00:56:37;6.70;99.90
76203;DHT22;64985;46.364;17.008;2024-02-26T00:59:39;6.70;99.90
76203;DHT22;64985;46.364;17.008;2024-02-26T01:02:41;6.70;99.90
76203;DHT22;64985;46.364;17.008;2024-02-26T01:05:44;6.50;99.90
76203;DHT22;64985;46.364;17.008;2024-02-26T01:08:46;6.00;99.90
76203;DHT22;64985;46.364;17.008;2024-02-26T01:11:49;5.70;99.90
76203;DHT22;64985;46.364;17.008;2024-02-26T01:14:51;5.70;99.90
76203;DHT22;64985;46.364;17.008;2024-02-26T01:17:53;5.50;99.90
76203;DHT22;64985;46.364;17.008;2024-02-26T01:20:55;5.50;99.90
76203;DHT22;64985;46.364;17.008;2024-02-26T01:23:58;5.30;99.90
76203;DHT22;64985;46.364;17.008;2024-02-26T01:27:00;5.30;99.90
76203;DHT22;64985;46.364;17.008;2024-02-26T01:30:06;5.40;99.90
76203;DHT22;64985;46.364;17.008;2024-02-26T01:33:10;5.50;99.90
76203;DHT22;64985;46.364;17.008;2024-02-26T01:36:13;5.40;99.90
76203;DHT22;64985;46.364;17.008;2024-02-26T01:39:15;5.30;99.90
76203;DHT22;64985;46.364;17.008;2024-02-26T01:42:17;5.20;99.90
76203;DHT22;64985;46.364;17.008;2024-02-26T01:45:20;5.20;99.90
76203;DHT22;64985;46.364;17.008;2024-02-26T01:48:28;5.00;99.90
76203;DHT22;64985;46.364;17.008;2024-02-26T01:51:31;5.10;99.90
76203;DHT22;64985;46.364;17.008;2024-02-26T01:54:38;5.10;99.90
76203;DHT22;64985;46.364;17.008;2024-02-26T01:57:43;5.00;99.90
76203;DHT22;64985;46.364;17.008;2024-02-26T02:00:46;4.90;99.90
76203;DHT22;64985;46.364;17.008;2024-02-26T02:03:49;5.00;99.90
76203;DHT22;64985;46.364;17.008;2024-02-26T02:06:52;5.60;99.90
76203;DHT22;64985;46.364;17.008;2024-02-26T02:09:54;6.10;99.90
76203;DHT22;64985;46.364;17.008;2024-02-26T02:12:57;6.40;99.90
76203;DHT22;64985;46.364;17.008;2024-02-26T02:15:59;6.40;99.90
76203;DHT22;64985;46.364;17.008;2024-02-26T02:19:02;6.30;99.90
76203;DHT22;64985;46.364;17.008;2024-02-26T02:22:04;6.30;99.90
76203;DHT22;64985;46.364;17.008;2024-02-26T02:25:07;6.30;99.90
76203;DHT22;64985;46.364;17.008;2024-02-26T02:28:09;6.20;99.90
76203;DHT22;64985;46.364;17.008;2024-02-26T02:31:12;6.30;99.90
76203;DHT22;64985;46.364;17.008;2024-02-26T02:34:14;6.50;99.90
76203;DHT22;64985;46.364;17.008;2024-02-26T02:37:17;6.50;99.90
76203;DHT22;64985;46.364;17.008;2024-02-26T02:40:19;6.10;99.90
76203;DHT22;64985;46.364;17.008;2024-02-26T02:43:21;5.60;99.90
76203;DHT22;64985;46.364;17.008;2024-02-26T02:46:24;5.40;99.90
76203;DHT22;64985;46.364;17.008;2024-02-26T02:49:26;5.30;99.90
76203;DHT22;64985;46.364;17.008;2024-02-26T02:52:29;5.30;99.90
76203;DHT22;64985;46.364;17.008;2024-02-26T02:55:31;5.20;99.90
76203;DHT22;64985;46.364;17.008;2024-02-26T02:58:33;5.00;99.90
76203;DHT22;64985;46.364;17.008;2024-02-26T03:01:36;4.90;99.90
76203;DHT22;64985;46.364;17.008;2024-02-26T03:04:38;4.70;99.90
76203;DHT22;64985;46.364;17.008;2024-02-26T03:07:40;4.70;99.90
76203;DHT22;64985;46.364;17.008;2024-02-26T03:10:43;4.60;99.90
76203;DHT22;64985;46.364;17.008;2024-02-26T03:13:45;4.50;99.90
76203;DHT22;64985;46.364;17.008;2024-02-26T03:16:48;4.50;99.90
76203;DHT22;64985;46.364;17.008;2024-02-26T03:19:50;4.80;99.90
76203;DHT22;64985;46.364;17.008;2024-02-26T03:22:55;4.90;99.90
76203;DHT22;64985;46.364;17.008;2024-02-26T03:25:58;4.80;99.90
76203;DHT22;64985;46.364;17.008;2024-02-26T03:29:00;4.60;99.90
76203;DHT22;64985;46.364;17.008;2024-02-26T03:32:05;4.40;99.90
76203;DHT22;64985;46.364;17.008;2024-02-26T03:35:08;4.20;99.90
76203;DHT22;64985;46.364;17.008;2024-02-26T03:38:10;4.10;99.90
76203;DHT22;64985;46.364;17.008;2024-02-26T03:41:12;4.00;99.90
76203;DHT22;64985;46.364;17.008;2024-02-26T03:44:15;3.90;99.90
76203;DHT22;64985;46.364;17.008;2024-02-26T03:47:17;3.80;99.90
76203;DHT22;64985;46.364;17.008;2024-02-26T03:50:19;3.70;99.90
76203;DHT22;64985;46.364;17.008;2024-02-26T03:53:21;3.50;99.90
76203;DHT22;64985;46.364;17.008;2024-02-26T03:56:23;3.60;99.90
76203;DHT22;64985;46.364;17.008;2024-02-26T03:59:25;3.40;99.90
76203;DHT22;64985;46.364;17.008;2024-02-26T04:02:28;3.50;99.90
76203;DHT22;64985;46.364;17.008;2024-02-26T04:05:31;4.00;99.90
76203;DHT22;64985;46.364;17.008;2024-02-26T04:08:33;4.70;99.90
76203;DHT22;64985;46.364;17.008;2024-02-26T04:11:35;4.40;99.90
76203;DHT22;64985;46.364;17.008;2024-02-26T04:14:38;4.10;99.90
76203;DHT22;64985;46.364;17.008;2024-02-26T04:17:41;4.20;99.90
76203;DHT22;64985;46.364;17.008;2024-02-26T04:20:43;3.80;99.90
76203;DHT22;64985;46.364;17.008;2024-02-26T04:23:46;3.60;99.90
76203;DHT22;64985;46.364;17.008;2024-02-26T04:26:48;3.50;99.90
76203;DHT22;64985;46.364;17.008;2024-02-26T04:29:52;3.40;99.90
76203;DHT22;64985;46.364;17.008;2024-02-26T04:32:54;3.30;99.90
76203;DHT22;64985;46.364;17.008;2024-02-26T04:35:56;3.20;99.90
76203;DHT22;64985;46.364;17.008;2024-02-26T04:38:58;3.20;99.90
76203;DHT22;64985;46.364;17.008;2024-02-26T04:42:01;3.30;99.90
76203;DHT22;64985;46.364;17.008;2024-02-26T04:45:06;3.10;99.90
76203;DHT22;64985;46.364;17.008;2024-02-26T04:48:10;3.10;99.90
76203;DHT22;64985;46.364;17.008;2024-02-26T04:51:12;3.00;99.90
76203;DHT22;64985;46.364;17.008;2024-02-26T04:54:15;3.00;99.90
76203;DHT22;64985;46.364;17.008;2024-02-26T04:57:17;2.90;99.90
76203;DHT22;64985;46.364;17.008;2024-02-26T05:00:22;2.90;99.90
76203;DHT22;64985;46.364;17.008;2024-02-26T05:03:24;2.80;99.90
76203;DHT22;64985;46.364;17.008;2024-02-26T05:06:27;2.80;99.90
76203;DHT22;64985;46.364;17.008;2024-02-26T05:09:29;2.60;99.90
76203;DHT22;64985;46.364;17.008;2024-02-26T05:12:32;3.50;99.90
76203;DHT22;64985;46.364;17.008;2024-02-26T05:15:37;4.00;99.90
76203;DHT22;64985;46.364;17.008;2024-02-26T05:18:39;3.50;99.90
76203;DHT22;64985;46.364;17.008;2024-02-26T05:21:42;3.20;99.90
76203;DHT22;64985;46.364;17.008;2024-02-26T05:24:46;3.60;99.90
76203;DHT22;64985;46.364;17.008;2024-02-26T05:27:48;4.10;99.90
76203;DHT22;64985;46.364;17.008;2024-02-26T05:30:50;3.90;99.90
76203;DHT22;64985;46.364;17.008;2024-02-26T05:33:52;4.40;99.90
76203;DHT22;64985;46.364;17.008;2024-02-26T05:36:54;4.90;99.90
76203;DHT22;64985;46.364;17.008;2024-02-26T05:39:56;5.30;99.90
76203;DHT22;64985;46.364;17.008;2024-02-26T05:42:59;5.70;99.90
76203;DHT22;64985;46.364;17.008;2024-02-26T05:46:01;5.80;99.90
76203;DHT22;64985;46.364;17.008;2024-02-26T05:49:03;5.80;99.90
76203;DHT22;64985;46.364;17.008;2024-02-26T05:52:06;5.70;99.90
76203;DHT22;64985;46.364;17.008;2024-02-26T05:55:09;5.60;99.90
76203;DHT22;64985;46.364;17.008;2024-02-26T05:58:11;5.70;99.90
76203;DHT22;64985;46.364;17.008;2024-02-26T06:01:16;5.70;99.90
76203;DHT22;64985;46.364;17.008;2024-02-26T06:04:19;5.70;99.90
76203;DHT22;64985;46.364;17.008;2024-02-26T06:07:21;5.60;99.90
76203;DHT22;64985;46.364;17.008;2024-02-26T06:10:23;5.70;99.90
76203;DHT22;64985;46.364;17.008;2024-02-26T06:13:26;5.80;99.90
76203;DHT22;64985;46.364;17.008;2024-02-26T06:16:28;5.90;99.90
76203;DHT22;64985;46.364;17.008;2024-02-26T06:19:30;5.90;99.90
76203;DHT22;64985;46.364;17.008;2024-02-26T06:22:33;6.00;99.90
76203;DHT22;64985;46.364;17.008;2024-02-26T06:25:35;5.90;99.90
76203;DHT22;64985;46.364;17.008;2024-02-26T06:28:37;6.00;99.90
76203;DHT22;64985;46.364;17.008;2024-02-26T06:31:43;6.10;99.90
76203;DHT22;64985;46.364;17.008;2024-02-26T06:34:45;6.00;99.90
76203;DHT22;64985;46.364;17.008;2024-02-26T06:37:48;6.10;99.90
76203;DHT22;64985;46.364;17.008;2024-02-26T06:40:53;6.10;99.90
76203;DHT22;64985;46.364;17.008;2024-02-26T06:43:55;6.10;99.90
76203;DHT22;64985;46.364;17.008;2024-02-26T06:46:58;6.10;99.90
76203;DHT22;64985;46.364;17.008;2024-02-26T06:50:04;6.10;99.90
76203;DHT22;64985;46.364;17.008;2024-02-26T06:53:06;6.10;99.90
76203;DHT22;64985;46.364;17.008;2024-02-26T06:56:09;6.00;99.90
76203;DHT22;64985;46.364;17.008;2024-02-26T06:59:11;6.20;99.90
76203;DHT22;64985;46.364;17.008;2024-02-26T07:02:14;6.30;99.90
76203;DHT22;64985;46.364;17.008;2024-02-26T07:05:16;6.50;99.90
76203;DHT22;64985;46.364;17.008;2024-02-26T07:08:19;6.60;99.90
76203;DHT22;64985;46.364;17.008;2024-02-26T07:11:22;6.70;99.90
76203;DHT22;64985;46.364;17.008;2024-02-26T07:14:24;6.80;99.90
76203;DHT22;64985;46.364;17.008;2024-02-26T07:17:27;6.90;99.90
76203;DHT22;64985;46.364;17.008;2024-02-26T07:20:30;7.00;99.90
76203;DHT22;64985;46.364;17.008;2024-02-26T07:23:32;7.10;99.90
76203;DHT22;64985;46.364;17.008;2024-02-26T07:26:35;7.20;99.90
76203;DHT22;64985;46.364;17.008;2024-02-26T07:29:37;7.40;99.90
76203;DHT22;64985;46.364;17.008;2024-02-26T07:32:39;7.40;99.90
76203;DHT22;64985;46.364;17.008;2024-02-26T07:35:42;7.60;99.90
76203;DHT22;64985;46.364;17.008;2024-02-26T07:38:44;7.80;99.90
76203;DHT22;64985;46.364;17.008;2024-02-26T07:41:49;7.90;99.90
76203;DHT22;64985;46.364;17.008;2024-02-26T07:44:53;8.10;99.90
76203;DHT22;64985;46.364;17.008;2024-02-26T07:47:56;8.30;99.90
76203;DHT22;64985;46.364;17.008;2024-02-26T07:50:59;8.50;99.90
76203;DHT22;64985;46.364;17.008;2024-02-26T07:54:02;8.80;99.90
76203;DHT22;64985;46.364;17.008;2024-02-26T07:57:04;9.00;99.90
76203;DHT22;64985;46.364;17.008;2024-02-26T08:00:08;9.30;99.90
76203;DHT22;64985;46.364;17.008;2024-02-26T08:03:11;9.60;99.90
76203;DHT22;64985;46.364;17.008;2024-02-26T08:06:16;9.90;99.90
76203;DHT22;64985;46.364;17.008;2024-02-26T08:09:18;10.30;99.90
76203;DHT22;64985;46.364;17.008;2024-02-26T08:12:21;10.80;99.90
76203;DHT22;64985;46.364;17.008;2024-02-26T08:15:23;11.50;99.90
76203;DHT22;64985;46.364;17.008;2024-02-26T08:18:25;11.80;99.90
76203;DHT22;64985;46.364;17.008;2024-02-26T08:21:28;11.60;99.90
76203;DHT22;64985;46.364;17.008;2024-02-26T08:24:31;12.20;99.90
76203;DHT22;64985;46.364;17.008;2024-02-26T08:27:33;12.00;99.90
76203;DHT22;64985;46.364;17.008;2024-02-26T08:30:35;12.00;99.90
76203;DHT22;64985;46.364;17.008;2024-02-26T08:33:37;12.20;99.90
76203;DHT22;64985;46.364;17.008;2024-02-26T08:36:40;12.30;99.90
76203;DHT22;64985;46.364;17.008;2024-02-26T08:39:42;12.00;99.90
76203;DHT22;64985;46.364;17.008;2024-02-26T08:42:45;11.80;99.90
76203;DHT22;64985;46.364;17.008;2024-02-26T08:45:47;11.80;99.90
76203;DHT22;64985;46.364;17.008;2024-02-26T08:48:49;12.00;99.90
76203;DHT22;64985;46.364;17.008;2024-02-26T08:51:52;12.00;99.90
76203;DHT22;64985;46.364;17.008;2024-02-26T08:54:54;11.80;99.90
76203;DHT22;64985;46.364;17.008;2024-02-26T08:57:56;12.30;99.90
76203;DHT22;64985;46.364;17.008;2024-02-26T09:00:59;13.10;99.90
76203;DHT22;64985;46.364;17.008;2024-02-26T09:04:01;12.70;99.90
76203;DHT22;64985;46.364;17.008;2024-02-26T09:07:03;13.30;99.90
76203;DHT22;64985;46.364;17.008;2024-02-26T09:10:06;13.70;99.90
76203;DHT22;64985;46.364;17.008;2024-02-26T09:13:11;13.70;99.90
76203;DHT22;64985;46.364;17.008;2024-02-26T09:16:13;12.80;99.90
76203;DHT22;64985;46.364;17.008;2024-02-26T09:19:15;12.80;99.90
76203;DHT22;64985;46.364;17.008;2024-02-26T09:22:17;13.20;99.90
76203;DHT22;64985;46.364;17.008;2024-02-26T09:25:20;13.20;99.90
76203;DHT22;64985;46.364;17.008;2024-02-26T09:28:22;13.20;99.90
76203;DHT22;64985;46.364;17.008;2024-02-26T09:31:27;13.20;99.90
76203;DHT22;64985;46.364;17.008;2024-02-26T09:34:29;13.40;99.90
76203;DHT22;64985;46.364;17.008;2024-02-26T09:37:32;13.70;97.20
76203;DHT22;64985;46.364;17.008;2024-02-26T09:40:35;14.00;91.90
76203;DHT22;64985;46.364;17.008;2024-02-26T09:43:43;14.00;83.60
76203;DHT22;64985;46.364;17.008;2024-02-26T09:46:47;14.30;85.70
76203;DHT22;64985;46.364;17.008;2024-02-26T09:49:51;14.10;80.20
76203;DHT22;64985;46.364;17.008;2024-02-26T09:52:55;14.40;76.40
76203;DHT22;64985;46.364;17.008;2024-02-26T09:55:59;14.50;70.80
76203;DHT22;64985;46.364;17.008;2024-02-26T09:59:03;14.30;68.10
76203;DHT22;64985;46.364;17.008;2024-02-26T10:02:16;14.60;65.60
76203;DHT22;64985;46.364;17.008;2024-02-26T10:05:21;14.40;62.00
76203;DHT22;64985;46.364;17.008;2024-02-26T10:08:25;14.40;61.90
76203;DHT22;64985;46.364;17.008;2024-02-26T10:11:28;13.70;62.60
76203;DHT22;64985;46.364;17.008;2024-02-26T10:14:33;13.50;62.00
76203;DHT22;64985;46.364;17.008;2024-02-26T10:17:36;13.40;59.10
76203;DHT22;64985;46.364;17.008;2024-02-26T10:20:39;13.90;57.10
76203;DHT22;64985;46.364;17.008;2024-02-26T10:23:41;14.20;59.60
76203;DHT22;64985;46.364;17.008;2024-02-26T10:26:47;14.00;55.00
76203;DHT22;64985;46.364;17.008;2024-02-26T10:29:50;13.90;54.60
76203;DHT22;64985;46.364;17.008;2024-02-26T10:32:54;13.90;56.10
76203;DHT22;64985;46.364;17.008;2024-02-26T10:35:56;14.30;54.10
76203;DHT22;64985;46.364;17.008;2024-02-26T10:39:02;15.10;57.20
76203;DHT22;64985;46.364;17.008;2024-02-26T10:42:05;14.60;53.80
76203;DHT22;64985;46.364;17.008;2024-02-26T10:45:14;14.80;57.70
76203;DHT22;64985;46.364;17.008;2024-02-26T10:48:17;15.20;49.70
76203;DHT22;64985;46.364;17.008;2024-02-26T10:51:26;16.30;51.10
76203;DHT22;64985;46.364;17.008;2024-02-26T10:54:29;16.70;49.40
76203;DHT22;64985;46.364;17.008;2024-02-26T10:57:38;15.20;51.40
76203;DHT22;64985;46.364;17.008;2024-02-26T11:00:46;15.40;51.80
76203;DHT22;64985;46.364;17.008;2024-02-26T11:07:12;15.70;52.90
76203;DHT22;64985;46.364;17.008;2024-02-26T11:10:15;15.50;52.50
76203;DHT22;64985;46.364;17.008;2024-02-26T11:13:19;15.70;52.90
76203;DHT22;64985;46.364;17.008;2024-02-26T11:16:23;15.20;51.20
76203;DHT22;64985;46.364;17.008;2024-02-26T11:19:28;15.50;50.00
76203;DHT22;64985;46.364;17.008;2024-02-26T11:22:34;15.40;49.60
76203;DHT22;64985;46.364;17.008;2024-02-26T11:25:37;15.00;50.20
76203;DHT22;64985;46.364;17.008;2024-02-26T11:28:41;15.30;48.00
76203;DHT22;64985;46.364;17.008;2024-02-26T11:31:44;15.40;48.40
76203;DHT22;64985;46.364;17.008;2024-02-26T11:34:46;15.40;47.80
76203;DHT22;64985;46.364;17.008;2024-02-26T11:37:53;15.70;49.40
76203;DHT22;64985;46.364;17.008;2024-02-26T11:40:56;16.20;50.30
76203;DHT22;64985;46.364;17.008;2024-02-26T11:44:03;16.10;47.90
76203;DHT22;64985;46.364;17.008;2024-02-26T11:47:22;15.60;47.20
76203;DHT22;64985;46.364;17.008;2024-02-26T11:50:36;15.90;46.70
76203;DHT22;64985;46.364;17.008;2024-02-26T11:53:46;16.20;48.30
76203;DHT22;64985;46.364;17.008;2024-02-26T11:56:50;16.00;47.60
76203;DHT22;64985;46.364;17.008;2024-02-26T11:59:52;15.80;45.80
76203;DHT22;64985;46.364;17.008;2024-02-26T12:02:55;15.20;46.40
76203;DHT22;64985;46.364;17.008;2024-02-26T12:06:03;15.00;46.40
76203;DHT22;64985;46.364;17.008;2024-02-26T12:09:06;14.70;46.10
76203;DHT22;64985;46.364;17.008;2024-02-26T12:12:10;14.60;46.60
76203;DHT22;64985;46.364;17.008;2024-02-26T12:15:15;15.00;46.40
76203;DHT22;64985;46.364;17.008;2024-02-26T12:18:18;15.00;44.50
76203;DHT22;64985;46.364;17.008;2024-02-26T12:21:20;15.20;47.20
76203;DHT22;64985;46.364;17.008;2024-02-26T12:24:23;15.00;43.10
76203;DHT22;64985;46.364;17.008;2024-02-26T12:27:25;14.90;43.80
76203;DHT22;64985;46.364;17.008;2024-02-26T12:30:28;15.60;43.50
76203;DHT22;64985;46.364;17.008;2024-02-26T12:33:34;15.20;42.40
76203;DHT22;64985;46.364;17.008;2024-02-26T12:36:37;15.00;41.60
76203;DHT22;64985;46.364;17.008;2024-02-26T12:39:40;15.10;41.30
76203;DHT22;64985;46.364;17.008;2024-02-26T12:42:43;15.00;42.80
76203;DHT22;64985;46.364;17.008;2024-02-26T12:45:45;14.80;44.20
76203;DHT22;64985;46.364;17.008;2024-02-26T12:48:50;14.80;44.00
76203;DHT22;64985;46.364;17.008;2024-02-26T12:51:52;15.10;43.50
76203;DHT22;64985;46.364;17.008;2024-02-26T12:54:55;15.90;43.80
76203;DHT22;64985;46.364;17.008;2024-02-26T12:57:57;16.00;43.30
76203;DHT22;64985;46.364;17.008;2024-02-26T13:01:01;16.40;44.30
76203;DHT22;64985;46.364;17.008;2024-02-26T13:04:04;16.40;40.30
76203;DHT22;64985;46.364;17.008;2024-02-26T13:07:08;16.00;39.60
76203;DHT22;64985;46.364;17.008;2024-02-26T13:10:11;16.00;38.60
76203;DHT22;64985;46.364;17.008;2024-02-26T13:13:17;15.70;38.70
76203;DHT22;64985;46.364;17.008;2024-02-26T13:16:19;15.60;39.30
76203;DHT22;64985;46.364;17.008;2024-02-26T13:19:26;15.40;38.20
76203;DHT22;64985;46.364;17.008;2024-02-26T13:22:29;15.40;37.30
76203;DHT22;64985;46.364;17.008;2024-02-26T13:25:35;15.30;37.80
76203;DHT22;64985;46.364;17.008;2024-02-26T13:28:45;15.40;38.00
76203;DHT22;64985;46.364;17.008;2024-02-26T13:31:47;15.30;40.70
76203;DHT22;64985;46.364;17.008;2024-02-26T13:34:49;15.20;38.60
76203;DHT22;64985;46.364;17.008;2024-02-26T13:37:52;14.90;38.80
76203;DHT22;64985;46.364;17.008;2024-02-26T13:40:55;14.50;37.00
76203;DHT22;64985;46.364;17.008;2024-02-26T13:43:57;14.50;40.20
76203;DHT22;64985;46.364;17.008;2024-02-26T13:47:00;14.50;38.50
76203;DHT22;64985;46.364;17.008;2024-02-26T13:50:02;14.60;39.80
76203;DHT22;64985;46.364;17.008;2024-02-26T13:53:05;14.90;40.60
76203;DHT22;64985;46.364;17.008;2024-02-26T13:56:07;15.30;39.90
76203;DHT22;64985;46.364;17.008;2024-02-26T13:59:09;15.30;40.80
76203;DHT22;64985;46.364;17.008;2024-02-26T14:02:11;15.40;38.90
76203;DHT22;64985;46.364;17.008;2024-02-26T14:05:14;15.70;40.70
76203;DHT22;64985;46.364;17.008;2024-02-26T14:08:16;15.60;38.80
76203;DHT22;64985;46.364;17.008;2024-02-26T14:11:19;15.40;39.40
76203;DHT22;64985;46.364;17.008;2024-02-26T14:14:21;15.00;39.00
76203;DHT22;64985;46.364;17.008;2024-02-26T14:17:24;15.10;40.00
76203;DHT22;64985;46.364;17.008;2024-02-26T14:20:26;15.00;38.40
76203;DHT22;64985;46.364;17.008;2024-02-26T14:23:29;15.30;38.60
76203;DHT22;64985;46.364;17.008;2024-02-26T14:26:31;15.50;37.20
76203;DHT22;64985;46.364;17.008;2024-02-26T14:29:33;15.30;38.00
76203;DHT22;64985;46.364;17.008;2024-02-26T14:32:36;15.30;39.80
76203;DHT22;64985;46.364;17.008;2024-02-26T14:35:40;15.20;38.70
76203;DHT22;64985;46.364;17.008;2024-02-26T14:38:42;15.10;40.30
76203;DHT22;64985;46.364;17.008;2024-02-26T14:41:44;15.10;40.40
76203;DHT22;64985;46.364;17.008;2024-02-26T14:44:46;15.10;40.50
76203;DHT22;64985;46.364;17.008;2024-02-26T14:47:50;15.10;41.10
76203;DHT22;64985;46.364;17.008;2024-02-26T14:50:52;14.70;39.60
76203;DHT22;64985;46.364;17.008;2024-02-26T14:53:54;14.60;40.20
76203;DHT22;64985;46.364;17.008;2024-02-26T14:56:56;14.60;42.40
76203;DHT22;64985;46.364;17.008;2024-02-26T14:59:59;14.60;41.50
76203;DHT22;64985;46.364;17.008;2024-02-26T15:03:01;14.60;40.70
76203;DHT22;64985;46.364;17.008;2024-02-26T15:06:04;14.60;42.90
76203;DHT22;64985;46.364;17.008;2024-02-26T15:09:06;14.50;40.40
76203;DHT22;64985;46.364;17.008;2024-02-26T15:12:09;14.50;43.40
76203;DHT22;64985;46.364;17.008;2024-02-26T15:15:12;14.50;42.40
76203;DHT22;64985;46.364;17.008;2024-02-26T15:18:15;14.50;41.40
76203;DHT22;64985;46.364;17.008;2024-02-26T15:21:19;14.40;41.40
76203;DHT22;64985;46.364;17.008;2024-02-26T15:24:21;14.30;41.30
76203;DHT22;64985;46.364;17.008;2024-02-26T15:27:23;14.30;42.60
76203;DHT22;64985;46.364;17.008;2024-02-26T15:30:25;14.40;44.00
76203;DHT22;64985;46.364;17.008;2024-02-26T15:33:30;14.70;41.00
76203;DHT22;64985;46.364;17.008;2024-02-26T15:36:34;15.00;42.70
76203;DHT22;64985;46.364;17.008;2024-02-26T15:39:36;15.10;41.70
76203;DHT22;64985;46.364;17.008;2024-02-26T15:42:38;14.90;42.00
76203;DHT22;64985;46.364;17.008;2024-02-26T15:45:41;14.50;43.20
76203;DHT22;64985;46.364;17.008;2024-02-26T15:48:43;14.20;42.20
76203;DHT22;64985;46.364;17.008;2024-02-26T15:51:46;14.00;43.80
76203;DHT22;64985;46.364;17.008;2024-02-26T15:54:48;14.10;46.40
76203;DHT22;64985;46.364;17.008;2024-02-26T15:57:50;14.10;48.20
76203;DHT22;64985;46.364;17.008;2024-02-26T16:00:52;14.10;47.80
76203;DHT22;64985;46.364;17.008;2024-02-26T16:03:55;14.00;54.30
76203;DHT22;64985;46.364;17.008;2024-02-26T16:07:01;13.70;57.70
76203;DHT22;64985;46.364;17.008;2024-02-26T16:10:06;13.40;58.40
76203;DHT22;64985;46.364;17.008;2024-02-26T16:13:08;13.10;58.50
76203;DHT22;64985;46.364;17.008;2024-02-26T16:16:18;12.80;58.80
76203;DHT22;64985;46.364;17.008;2024-02-26T16:19:22;12.40;56.90
76203;DHT22;64985;46.364;17.008;2024-02-26T16:22:25;11.90;58.20
76203;DHT22;64985;46.364;17.008;2024-02-26T16:25:28;11.50;62.40
76203;DHT22;64985;46.364;17.008;2024-02-26T16:28:30;11.10;59.70
76203;DHT22;64985;46.364;17.008;2024-02-26T16:31:33;10.90;60.30
76203;DHT22;64985;46.364;17.008;2024-02-26T16:34:35;10.60;70.80
76203;DHT22;64985;46.364;17.008;2024-02-26T16:37:37;10.30;79.30
76203;DHT22;64985;46.364;17.008;2024-02-26T16:40:40;10.00;74.50
76203;DHT22;64985;46.364;17.008;2024-02-26T16:43:43;9.80;68.30
76203;DHT22;64985;46.364;17.008;2024-02-26T16:46:46;9.70;72.00
76203;DHT22;64985;46.364;17.008;2024-02-26T16:49:48;9.40;77.40
76203;DHT22;64985;46.364;17.008;2024-02-26T16:52:51;9.00;80.60
76203;DHT22;64985;46.364;17.008;2024-02-26T16:55:53;8.80;83.00
76203;DHT22;64985;46.364;17.008;2024-02-26T16:58:55;8.60;84.30
76203;DHT22;64985;46.364;17.008;2024-02-26T17:01:57;8.50;90.10
76203;DHT22;64985;46.364;17.008;2024-02-26T17:05:02;8.40;91.00
76203;DHT22;64985;46.364;17.008;2024-02-26T17:08:05;8.10;92.20
76203;DHT22;64985;46.364;17.008;2024-02-26T17:11:09;8.00;95.50
76203;DHT22;64985;46.364;17.008;2024-02-26T17:14:11;7.80;95.90
76203;DHT22;64985;46.364;17.008;2024-02-26T17:17:14;7.60;97.30
76203;DHT22;64985;46.364;17.008;2024-02-26T17:20:17;7.40;97.80
76203;DHT22;64985;46.364;17.008;2024-02-26T17:23:19;7.30;99.10
76203;DHT22;64985;46.364;17.008;2024-02-26T17:26:23;7.20;99.90
76203;DHT22;64985;46.364;17.008;2024-02-26T17:29:26;7.10;99.90
76203;DHT22;64985;46.364;17.008;2024-02-26T17:32:28;7.00;99.90
76203;DHT22;64985;46.364;17.008;2024-02-26T17:35:30;7.00;99.90
76203;DHT22;64985;46.364;17.008;2024-02-26T17:38:32;6.80;99.90
76203;DHT22;64985;46.364;17.008;2024-02-26T17:41:36;6.70;99.90
76203;DHT22;64985;46.364;17.008;2024-02-26T17:44:38;6.60;99.90
76203;DHT22;64985;46.364;17.008;2024-02-26T17:47:41;6.60;99.90
76203;DHT22;64985;46.364;17.008;2024-02-26T17:50:43;6.50;99.90
76203;DHT22;64985;46.364;17.008;2024-02-26T17:53:45;6.40;99.90
76203;DHT22;64985;46.364;17.008;2024-02-26T17:56:48;6.20;99.90
76203;DHT22;64985;46.364;17.008;2024-02-26T17:59:50;6.10;99.90
76203;DHT22;64985;46.364;17.008;2024-02-26T18:02:53;6.00;99.90
76203;DHT22;64985;46.364;17.008;2024-02-26T18:05:55;6.00;99.90
76203;DHT22;64985;46.364;17.008;2024-02-26T18:08:57;6.00;99.90
76203;DHT22;64985;46.364;17.008;2024-02-26T18:11:59;6.00;99.90
76203;DHT22;64985;46.364;17.008;2024-02-26T18:15:03;5.90;99.90
76203;DHT22;64985;46.364;17.008;2024-02-26T18:18:06;5.60;99.90
76203;DHT22;64985;46.364;17.008;2024-02-26T18:21:09;5.50;99.90
76203;DHT22;64985;46.364;17.008;2024-02-26T18:24:14;5.50;99.90
76203;DHT22;64985;46.364;17.008;2024-02-26T18:27:17;5.40;99.90
76203;DHT22;64985;46.364;17.008;2024-02-26T18:30:20;5.30;99.90
76203;DHT22;64985;46.364;17.008;2024-02-26T18:33:23;5.30;99.90
76203;DHT22;64985;46.364;17.008;2024-02-26T18:36:26;5.20;99.90
76203;DHT22;64985;46.364;17.008;2024-02-26T18:39:29;5.20;99.90
76203;DHT22;64985;46.364;17.008;2024-02-26T18:42:33;5.20;99.90
76203;DHT22;64985;46.364;17.008;2024-02-26T18:45:40;5.20;99.90
76203;DHT22;64985;46.364;17.008;2024-02-26T18:48:45;5.00;99.90
76203;DHT22;64985;46.364;17.008;2024-02-26T18:51:48;5.00;99.90
76203;DHT22;64985;46.364;17.008;2024-02-26T18:54:51;4.90;99.90
76203;DHT22;64985;46.364;17.008;2024-02-26T18:57:56;4.80;99.90
76203;DHT22;64985;46.364;17.008;2024-02-26T19:00:59;4.80;99.90
76203;DHT22;64985;46.364;17.008;2024-02-26T19:04:02;4.80;99.90
76203;DHT22;64985;46.364;17.008;2024-02-26T19:07:06;4.80;99.90
76203;DHT22;64985;46.364;17.008;2024-02-26T19:10:09;4.90;99.90
76203;DHT22;64985;46.364;17.008;2024-02-26T19:13:14;4.90;99.90